sensor_id;sensor_type;location;lat;lon;timestamp;temperature;humidity
9271;DHT22;4673;53.458;9.940;2022-11-20T00:01:22;0.60;99.90
9271;DHT22;4673;53.458;9.940;2022-11-20T00:03:52;0.50;99.90
9271;DHT22;4673;53.458;9.940;2022-11-20T00:06:19;0.60;99.90
9271;DHT22;4673;53.458;9.940;2022-11-20T00:09:23;0.60;99.90
9271;DHT22;4673;53.458;9.940;2022-11-20T00:11:48;0.60;99.90
9271;DHT22;4673;53.458;9.940;2022-11-20T00:14:14;0.60;99.90
9271;DHT22;4673;53.458;9.940;2022-11-20T00:16:40;0.70;99.90
9271;DHT22;4673;53.458;9.940;2022-11-20T00:19:05;0.60;99.90
9271;DHT22;4673;53.458;9.940;2022-11-20T00:21:31;0.60;99.90
9271;DHT22;4673;53.458;9.940;2022-11-20T00:24:22;0.60;99.90
9271;DHT22;4673;53.458;9.940;2022-11-20T00:26:57;0.60;99.90
9271;DHT22;4673;53.458;9.940;2022-11-20T00:29:25;0.60;99.90
9271;DHT22;4673;53.458;9.940;2022-11-20T00:31:51;0.60;99.90
9271;DHT22;4673;53.458;9.940;2022-11-20T00:34:35;0.60;99.90
9271;DHT22;4673;53.458;9.940;2022-11-20T00:37:13;0.60;99.90
9271;DHT22;4673;53.458;9.940;2022-11-20T00:39:39;0.60;99.90
9271;DHT22;4673;53.458;9.940;2022-11-20T00:42:05;0.60;99.90
9271;DHT22;4673;53.458;9.940;2022-11-20T00:44:37;0.60;99.90
9271;DHT22;4673;53.458;9.940;2022-11-20T00:47:08;0.50;99.90
9271;DHT22;4673;53.458;9.940;2022-11-20T00:49:34;0.50;99.90
9271;DHT22;4673;53.458;9.940;2022-11-20T00:52:00;0.50;99.90
9271;DHT22;4673;53.458;9.940;2022-11-20T00:54:25;0.50;99.90
9271;DHT22;4673;53.458;9.940;2022-11-20T00:56:54;0.50;99.90
9271;DHT22;4673;53.458;9.940;2022-11-20T00:59:32;0.50;99.90
9271;DHT22;4673;53.458;9.940;2022-11-20T01:01:58;0.50;99.90
9271;DHT22;4673;53.458;9.940;2022-11-20T01:04:23;0.50;99.90
9271;DHT22;4673;53.458;9.940;2022-11-20T01:06:49;0.60;99.90
9271;DHT22;4673;53.458;9.940;2022-11-20T01:09:15;0.50;99.90
9271;DHT22;4673;53.458;9.940;2022-11-20T01:11:43;0.70;99.90
9271;DHT22;4673;53.458;9.940;2022-11-20T01:14:16;0.50;99.90
9271;DHT22;4673;53.458;9.940;2022-11-20T01:16:52;0.60;99.90
9271;DHT22;4673;53.458;9.940;2022-11-20T01:19:21;0.50;99.90
9271;DHT22;4673;53.458;9.940;2022-11-20T01:21:49;0.50;99.90
9271;DHT22;4673;53.458;9.940;2022-11-20T01:24:17;0.50;99.90
9271;DHT22;4673;53.458;9.940;2022-11-20T01:26:50;0.50;99.90
9271;DHT22;4673;53.458;9.940;2022-11-20T01:29:22;0.50;99.90
9271;DHT22;4673;53.458;9.940;2022-11-20T01:31:57;0.50;99.90
9271;DHT22;4673;53.458;9.940;2022-11-20T01:34:23;0.50;99.90
9271;DHT22;4673;53.458;9.940;2022-11-20T01:36:52;0.40;99.90
9271;DHT22;4673;53.458;9.940;2022-11-20T01:39:21;0.30;99.90
9271;DHT22;4673;53.458;9.940;2022-11-20T01:41:47;0.30;99.90
9271;DHT22;4673;53.458;9.940;2022-11-20T01:47:39;0.30;99.90
9271;DHT22;4673;53.458;9.940;2022-11-20T01:50:59;0.40;99.90
9271;DHT22;4673;53.458;9.940;2022-11-20T01:53:09;0.30;99.90
9271;DHT22;4673;53.458;9.940;2022-11-20T01:55:39;0.50;99.90
9271;DHT22;4673;53.458;9.940;2022-11-20T01:58:07;0.40;99.90
9271;DHT22;4673;53.458;9.940;2022-11-20T02:00:33;0.50;99.90
9271;DHT22;4673;53.458;9.940;2022-11-20T02:03:01;0.50;99.90
9271;DHT22;4673;53.458;9.940;2022-11-20T02:06:29;0.50;99.90
9271;DHT22;4673;53.458;9.940;2022-11-20T02:08:35;0.50;99.90
9271;DHT22;4673;53.458;9.940;2022-11-20T02:11:01;0.50;99.90
9271;DHT22;4673;53.458;9.940;2022-11-20T02:13:28;0.50;99.90
9271;DHT22;4673;53.458;9.940;2022-11-20T02:16:19;0.70;99.90
9271;DHT22;4673;53.458;9.940;2022-11-20T02:18:46;0.50;99.90
9271;DHT22;4673;53.458;9.940;2022-11-20T02:21:19;0.50;99.90
9271;DHT22;4673;53.458;9.940;2022-11-20T02:24:15;0.50;99.90
9271;DHT22;4673;53.458;9.940;2022-11-20T02:29:25;0.60;99.90
9271;DHT22;4673;53.458;9.940;2022-11-20T02:31:53;0.60;99.90
9271;DHT22;4673;53.458;9.940;2022-11-20T02:34:20;0.60;99.90
9271;DHT22;4673;53.458;9.940;2022-11-20T02:36:46;0.70;99.90
9271;DHT22;4673;53.458;9.940;2022-11-20T02:39:14;0.70;99.90
9271;DHT22;4673;53.458;9.940;2022-11-20T02:41:42;0.70;99.90
9271;DHT22;4673;53.458;9.940;2022-11-20T02:44:08;0.70;99.90
9271;DHT22;4673;53.458;9.940;2022-11-20T02:46:34;0.60;99.90
9271;DHT22;4673;53.458;9.940;2022-11-20T02:49:02;0.50;99.80
9271;DHT22;4673;53.458;9.940;2022-11-20T02:51:28;0.60;99.90
9271;DHT22;4673;53.458;9.940;2022-11-20T02:53:54;0.80;99.90
9271;DHT22;4673;53.458;9.940;2022-11-20T02:56:20;0.60;99.90
9271;DHT22;4673;53.458;9.940;2022-11-20T02:58:45;0.70;99.90
9271;DHT22;4673;53.458;9.940;2022-11-20T03:01:11;0.70;99.90
9271;DHT22;4673;53.458;9.940;2022-11-20T03:03:37;0.70;99.90
9271;DHT22;4673;53.458;9.940;2022-11-20T03:06:03;0.70;99.90
9271;DHT22;4673;53.458;9.940;2022-11-20T03:08:28;0.70;99.90
9271;DHT22;4673;53.458;9.940;2022-11-20T03:10:54;0.70;99.90
9271;DHT22;4673;53.458;9.940;2022-11-20T03:13:20;0.80;99.70
9271;DHT22;4673;53.458;9.940;2022-11-20T03:15:45;0.80;99.70
9271;DHT22;4673;53.458;9.940;2022-11-20T03:18:11;0.80;99.70
9271;DHT22;4673;53.458;9.940;2022-11-20T03:20:38;0.80;99.70
9271;DHT22;4673;53.458;9.940;2022-11-20T03:23:04;0.80;99.50
9271;DHT22;4673;53.458;9.940;2022-11-20T03:25:30;0.80;99.50
9271;DHT22;4673;53.458;9.940;2022-11-20T03:27:56;0.90;99.40
9271;DHT22;4673;53.458;9.940;2022-11-20T03:30:22;0.80;99.20
9271;DHT22;4673;53.458;9.940;2022-11-20T03:32:47;0.90;99.20
9271;DHT22;4673;53.458;9.940;2022-11-20T03:35:13;0.80;98.70
9271;DHT22;4673;53.458;9.940;2022-11-20T03:37:39;0.80;98.70
9271;DHT22;4673;53.458;9.940;2022-11-20T03:40:05;0.70;98.60
9271;DHT22;4673;53.458;9.940;2022-11-20T03:42:31;0.80;98.60
9271;DHT22;4673;53.458;9.940;2022-11-20T03:45:16;0.70;98.20
9271;DHT22;4673;53.458;9.940;2022-11-20T03:47:43;0.70;98.30
9271;DHT22;4673;53.458;9.940;2022-11-20T03:50:10;0.80;98.40
9271;DHT22;4673;53.458;9.940;2022-11-20T03:52:36;0.60;97.80
9271;DHT22;4673;53.458;9.940;2022-11-20T03:55:02;0.60;98.00
9271;DHT22;4673;53.458;9.940;2022-11-20T03:57:28;0.60;97.90
9271;DHT22;4673;53.458;9.940;2022-11-20T03:59:53;0.60;98.00
9271;DHT22;4673;53.458;9.940;2022-11-20T04:02:19;0.70;98.30
9271;DHT22;4673;53.458;9.940;2022-11-20T04:04:44;0.70;98.40
9271;DHT22;4673;53.458;9.940;2022-11-20T04:07:10;0.70;98.30
9271;DHT22;4673;53.458;9.940;2022-11-20T04:09:36;0.80;98.40
9271;DHT22;4673;53.458;9.940;2022-11-20T04:12:01;0.80;98.50
9271;DHT22;4673;53.458;9.940;2022-11-20T04:14:27;0.80;98.40
9271;DHT22;4673;53.458;9.940;2022-11-20T04:16:53;0.90;98.40
9271;DHT22;4673;53.458;9.940;2022-11-20T04:19:18;0.80;98.30
9271;DHT22;4673;53.458;9.940;2022-11-20T04:21:44;0.90;98.20
9271;DHT22;4673;53.458;9.940;2022-11-20T04:24:10;0.70;98.00
9271;DHT22;4673;53.458;9.940;2022-11-20T04:26:36;0.80;98.10
9271;DHT22;4673;53.458;9.940;2022-11-20T04:29:02;0.70;97.90
9271;DHT22;4673;53.458;9.940;2022-11-20T04:31:30;0.80;98.10
9271;DHT22;4673;53.458;9.940;2022-11-20T04:34:00;0.70;98.00
9271;DHT22;4673;53.458;9.940;2022-11-20T04:36:27;0.70;98.00
9271;DHT22;4673;53.458;9.940;2022-11-20T04:38:55;0.70;97.90
9271;DHT22;4673;53.458;9.940;2022-11-20T04:41:22;0.70;97.90
9271;DHT22;4673;53.458;9.940;2022-11-20T04:43:49;0.60;97.70
9271;DHT22;4673;53.458;9.940;2022-11-20T04:46:20;0.60;97.80
9271;DHT22;4673;53.458;9.940;2022-11-20T04:48:46;0.60;98.10
9271;DHT22;4673;53.458;9.940;2022-11-20T04:51:12;0.70;98.20
9271;DHT22;4673;53.458;9.940;2022-11-20T04:53:38;0.70;98.30
9271;DHT22;4673;53.458;9.940;2022-11-20T04:56:06;0.70;98.30
9271;DHT22;4673;53.458;9.940;2022-11-20T04:58:32;0.70;98.20
9271;DHT22;4673;53.458;9.940;2022-11-20T05:01:12;0.70;98.40
9271;DHT22;4673;53.458;9.940;2022-11-20T05:03:39;0.70;98.40
9271;DHT22;4673;53.458;9.940;2022-11-20T05:06:06;0.70;98.40
9271;DHT22;4673;53.458;9.940;2022-11-20T05:08:32;0.60;98.20
9271;DHT22;4673;53.458;9.940;2022-11-20T05:11:12;0.60;98.30
9271;DHT22;4673;53.458;9.940;2022-11-20T05:13:39;0.50;98.20
9271;DHT22;4673;53.458;9.940;2022-11-20T05:16:10;0.40;97.90
9271;DHT22;4673;53.458;9.940;2022-11-20T05:18:37;0.50;98.20
9271;DHT22;4673;53.458;9.940;2022-11-20T05:21:03;0.40;98.10
9271;DHT22;4673;53.458;9.940;2022-11-20T05:23:30;0.40;98.20
9271;DHT22;4673;53.458;9.940;2022-11-20T05:25:57;0.30;98.30
9271;DHT22;4673;53.458;9.940;2022-11-20T05:28:23;0.40;98.50
9271;DHT22;4673;53.458;9.940;2022-11-20T05:30:49;0.40;98.50
9271;DHT22;4673;53.458;9.940;2022-11-20T05:33:16;0.40;98.60
9271;DHT22;4673;53.458;9.940;2022-11-20T05:35:42;0.50;98.60
9271;DHT22;4673;53.458;9.940;2022-11-20T05:38:07;0.30;98.50
9271;DHT22;4673;53.458;9.940;2022-11-20T05:40:33;0.30;98.60
9271;DHT22;4673;53.458;9.940;2022-11-20T05:42:59;0.30;98.60
9271;DHT22;4673;53.458;9.940;2022-11-20T05:45:25;0.20;98.40
9271;DHT22;4673;53.458;9.940;2022-11-20T05:47:51;0.20;98.60
9271;DHT22;4673;53.458;9.940;2022-11-20T05:50:16;0.30;98.90
9271;DHT22;4673;53.458;9.940;2022-11-20T05:52:42;0.30;99.10
9271;DHT22;4673;53.458;9.940;2022-11-20T05:55:08;0.60;99.20
9271;DHT22;4673;53.458;9.940;2022-11-20T05:57:33;0.40;99.10
9271;DHT22;4673;53.458;9.940;2022-11-20T05:59:59;0.40;99.00
9271;DHT22;4673;53.458;9.940;2022-11-20T06:02:25;0.40;98.90
9271;DHT22;4673;53.458;9.940;2022-11-20T06:04:50;0.40;99.00
9271;DHT22;4673;53.458;9.940;2022-11-20T06:07:16;0.40;99.00
9271;DHT22;4673;53.458;9.940;2022-11-20T06:09:41;0.40;99.00
9271;DHT22;4673;53.458;9.940;2022-11-20T06:12:07;0.40;99.10
9271;DHT22;4673;53.458;9.940;2022-11-20T06:14:33;0.50;99.10
9271;DHT22;4673;53.458;9.940;2022-11-20T06:16:59;0.40;99.00
9271;DHT22;4673;53.458;9.940;2022-11-20T06:19:24;0.40;99.00
9271;DHT22;4673;53.458;9.940;2022-11-20T06:21:50;0.40;98.90
9271;DHT22;4673;53.458;9.940;2022-11-20T06:24:16;0.40;98.70
9271;DHT22;4673;53.458;9.940;2022-11-20T06:26:42;0.40;98.90
9271;DHT22;4673;53.458;9.940;2022-11-20T06:29:07;0.40;98.90
9271;DHT22;4673;53.458;9.940;2022-11-20T06:31:33;0.40;98.80
9271;DHT22;4673;53.458;9.940;2022-11-20T06:34:00;0.40;98.80
9271;DHT22;4673;53.458;9.940;2022-11-20T06:36:26;0.40;98.80
9271;DHT22;4673;53.458;9.940;2022-11-20T06:38:52;0.50;99.00
9271;DHT22;4673;53.458;9.940;2022-11-20T06:41:20;0.40;98.90
9271;DHT22;4673;53.458;9.940;2022-11-20T06:43:46;0.40;98.90
9271;DHT22;4673;53.458;9.940;2022-11-20T06:46:13;0.40;98.90
9271;DHT22;4673;53.458;9.940;2022-11-20T06:48:39;0.50;99.10
9271;DHT22;4673;53.458;9.940;2022-11-20T06:51:06;0.50;99.00
9271;DHT22;4673;53.458;9.940;2022-11-20T06:53:33;0.50;98.90
9271;DHT22;4673;53.458;9.940;2022-11-20T06:55:58;0.50;99.00
9271;DHT22;4673;53.458;9.940;2022-11-20T06:58:27;0.50;99.00
9271;DHT22;4673;53.458;9.940;2022-11-20T07:00:53;0.50;98.90
9271;DHT22;4673;53.458;9.940;2022-11-20T07:03:19;0.50;98.90
9271;DHT22;4673;53.458;9.940;2022-11-20T07:05:44;0.60;98.80
9271;DHT22;4673;53.458;9.940;2022-11-20T07:08:12;0.50;98.70
9271;DHT22;4673;53.458;9.940;2022-11-20T07:10:37;0.50;98.60
9271;DHT22;4673;53.458;9.940;2022-11-20T07:13:03;0.50;98.60
9271;DHT22;4673;53.458;9.940;2022-11-20T07:15:29;0.40;98.30
9271;DHT22;4673;53.458;9.940;2022-11-20T07:17:54;0.30;98.30
9271;DHT22;4673;53.458;9.940;2022-11-20T07:20:20;0.30;98.40
9271;DHT22;4673;53.458;9.940;2022-11-20T07:22:46;0.20;98.20
9271;DHT22;4673;53.458;9.940;2022-11-20T07:25:11;0.10;98.50
9271;DHT22;4673;53.458;9.940;2022-11-20T07:27:37;0.20;98.90
9271;DHT22;4673;53.458;9.940;2022-11-20T07:30:03;0.30;99.20
9271;DHT22;4673;53.458;9.940;2022-11-20T07:32:29;0.40;99.30
9271;DHT22;4673;53.458;9.940;2022-11-20T07:34:55;0.40;99.30
9271;DHT22;4673;53.458;9.940;2022-11-20T07:37:21;0.50;99.40
9271;DHT22;4673;53.458;9.940;2022-11-20T07:39:46;0.50;99.40
9271;DHT22;4673;53.458;9.940;2022-11-20T07:42:12;0.60;99.40
9271;DHT22;4673;53.458;9.940;2022-11-20T07:44:38;0.60;99.40
9271;DHT22;4673;53.458;9.940;2022-11-20T07:47:04;0.60;99.30
9271;DHT22;4673;53.458;9.940;2022-11-20T07:49:30;0.60;99.10
9271;DHT22;4673;53.458;9.940;2022-11-20T07:51:56;0.60;98.80
9271;DHT22;4673;53.458;9.940;2022-11-20T07:54:22;0.50;98.80
9271;DHT22;4673;53.458;9.940;2022-11-20T07:56:48;0.50;99.00
9271;DHT22;4673;53.458;9.940;2022-11-20T07:59:14;0.60;99.10
9271;DHT22;4673;53.458;9.940;2022-11-20T08:01:41;0.60;99.10
9271;DHT22;4673;53.458;9.940;2022-11-20T08:04:07;0.50;98.60
9271;DHT22;4673;53.458;9.940;2022-11-20T08:06:33;0.40;98.50
9271;DHT22;4673;53.458;9.940;2022-11-20T08:08:58;0.40;98.70
9271;DHT22;4673;53.458;9.940;2022-11-20T08:11:24;0.40;98.80
9271;DHT22;4673;53.458;9.940;2022-11-20T08:14:08;0.50;99.10
9271;DHT22;4673;53.458;9.940;2022-11-20T08:16:40;0.50;99.10
9271;DHT22;4673;53.458;9.940;2022-11-20T08:19:07;0.60;99.30
9271;DHT22;4673;53.458;9.940;2022-11-20T08:21:33;0.60;99.10
9271;DHT22;4673;53.458;9.940;2022-11-20T08:23:59;0.70;99.30
9271;DHT22;4673;53.458;9.940;2022-11-20T08:26:25;0.80;99.10
9271;DHT22;4673;53.458;9.940;2022-11-20T08:28:58;0.80;99.10
9271;DHT22;4673;53.458;9.940;2022-11-20T08:31:25;0.80;98.70
9271;DHT22;4673;53.458;9.940;2022-11-20T08:33:51;0.90;98.50
9271;DHT22;4673;53.458;9.940;2022-11-20T08:36:18;0.80;98.20
9271;DHT22;4673;53.458;9.940;2022-11-20T08:38:48;1.00;98.70
9271;DHT22;4673;53.458;9.940;2022-11-20T08:41:14;1.00;98.50
9271;DHT22;4673;53.458;9.940;2022-11-20T08:43:50;0.90;97.70
9271;DHT22;4673;53.458;9.940;2022-11-20T08:46:16;0.90;97.90
9271;DHT22;4673;53.458;9.940;2022-11-20T08:48:42;0.90;98.20
9271;DHT22;4673;53.458;9.940;2022-11-20T08:51:09;1.10;98.30
9271;DHT22;4673;53.458;9.940;2022-11-20T08:53:34;1.10;98.30
9271;DHT22;4673;53.458;9.940;2022-11-20T08:56:00;1.10;98.10
9271;DHT22;4673;53.458;9.940;2022-11-20T08:58:26;1.10;98.00
9271;DHT22;4673;53.458;9.940;2022-11-20T09:00:52;1.10;97.60
9271;DHT22;4673;53.458;9.940;2022-11-20T09:03:18;1.20;97.80
9271;DHT22;4673;53.458;9.940;2022-11-20T09:05:44;1.40;98.00
9271;DHT22;4673;53.458;9.940;2022-11-20T09:08:09;1.60;97.90
9271;DHT22;4673;53.458;9.940;2022-11-20T09:10:35;1.80;97.80
9271;DHT22;4673;53.458;9.940;2022-11-20T09:13:02;1.70;96.50
9271;DHT22;4673;53.458;9.940;2022-11-20T09:15:28;1.60;95.30
9271;DHT22;4673;53.458;9.940;2022-11-20T09:17:58;1.70;95.90
9271;DHT22;4673;53.458;9.940;2022-11-20T09:20:25;1.60;95.30
9271;DHT22;4673;53.458;9.940;2022-11-20T09:22:50;1.70;95.90
9271;DHT22;4673;53.458;9.940;2022-11-20T09:25:17;1.80;95.90
9271;DHT22;4673;53.458;9.940;2022-11-20T09:27:42;1.90;95.80
9271;DHT22;4673;53.458;9.940;2022-11-20T09:30:10;2.10;95.30
9271;DHT22;4673;53.458;9.940;2022-11-20T09:32:35;1.70;94.70
9271;DHT22;4673;53.458;9.940;2022-11-20T09:35:02;1.60;94.40
9271;DHT22;4673;53.458;9.940;2022-11-20T09:37:27;1.70;94.90
9271;DHT22;4673;53.458;9.940;2022-11-20T09:39:53;1.80;95.00
9271;DHT22;4673;53.458;9.940;2022-11-20T09:42:39;1.80;95.40
9271;DHT22;4673;53.458;9.940;2022-11-20T09:55:51;2.40;93.30
9271;DHT22;4673;53.458;9.940;2022-11-20T09:58:36;2.20;92.40
9271;DHT22;4673;53.458;9.940;2022-11-20T10:01:16;2.20;93.40
9271;DHT22;4673;53.458;9.940;2022-11-20T10:06:13;2.30;93.20
9271;DHT22;4673;53.458;9.940;2022-11-20T10:11:33;2.40;92.80
9271;DHT22;4673;53.458;9.940;2022-11-20T10:16:51;2.20;91.90
9271;DHT22;4673;53.458;9.940;2022-11-20T10:25:19;2.40;91.40
9271;DHT22;4673;53.458;9.940;2022-11-20T10:31:04;2.40;91.70
9271;DHT22;4673;53.458;9.940;2022-11-20T10:33:36;2.50;91.70
9271;DHT22;4673;53.458;9.940;2022-11-20T10:36:34;2.70;91.40
9271;DHT22;4673;53.458;9.940;2022-11-20T10:39:07;3.00;91.40
9271;DHT22;4673;53.458;9.940;2022-11-20T10:41:43;2.90;87.70
9271;DHT22;4673;53.458;9.940;2022-11-20T10:44:24;2.90;88.10
9271;DHT22;4673;53.458;9.940;2022-11-20T10:47:22;3.10;89.50
9271;DHT22;4673;53.458;9.940;2022-11-20T10:49:52;3.20;88.30
9271;DHT22;4673;53.458;9.940;2022-11-20T10:52:57;3.10;87.90
9271;DHT22;4673;53.458;9.940;2022-11-20T10:55:39;2.60;84.70
9271;DHT22;4673;53.458;9.940;2022-11-20T11:01:06;2.00;86.10
9271;DHT22;4673;53.458;9.940;2022-11-20T11:03:38;1.90;87.50
9271;DHT22;4673;53.458;9.940;2022-11-20T11:08:59;1.80;89.00
9271;DHT22;4673;53.458;9.940;2022-11-20T11:11:29;2.00;89.10
9271;DHT22;4673;53.458;9.940;2022-11-20T11:14:11;2.20;88.90
9271;DHT22;4673;53.458;9.940;2022-11-20T11:16:49;2.90;89.50
9271;DHT22;4673;53.458;9.940;2022-11-20T11:19:16;2.90;88.90
9271;DHT22;4673;53.458;9.940;2022-11-20T11:22:10;3.10;87.80
9271;DHT22;4673;53.458;9.940;2022-11-20T11:24:51;3.00;86.10
9271;DHT22;4673;53.458;9.940;2022-11-20T11:27:17;2.80;83.00
9271;DHT22;4673;53.458;9.940;2022-11-20T11:29:43;2.80;85.40
9271;DHT22;4673;53.458;9.940;2022-11-20T11:32:15;2.90;85.80
9271;DHT22;4673;53.458;9.940;2022-11-20T11:34:42;3.00;85.60
9271;DHT22;4673;53.458;9.940;2022-11-20T11:37:17;3.20;85.30
9271;DHT22;4673;53.458;9.940;2022-11-20T11:39:44;3.50;85.90
9271;DHT22;4673;53.458;9.940;2022-11-20T11:42:16;3.50;80.70
9271;DHT22;4673;53.458;9.940;2022-11-20T11:44:47;3.50;81.70
9271;DHT22;4673;53.458;9.940;2022-11-20T11:47:46;3.40;81.70
9271;DHT22;4673;53.458;9.940;2022-11-20T11:50:16;3.30;79.40
9271;DHT22;4673;53.458;9.940;2022-11-20T11:53:12;3.20;80.30
9271;DHT22;4673;53.458;9.940;2022-11-20T11:55:56;3.10;79.20
9271;DHT22;4673;53.458;9.940;2022-11-20T12:01:33;2.70;80.40
9271;DHT22;4673;53.458;9.940;2022-11-20T12:04:02;2.70;81.40
9271;DHT22;4673;53.458;9.940;2022-11-20T12:06:31;2.70;80.80
9271;DHT22;4673;53.458;9.940;2022-11-20T12:09:10;2.60;81.80
9271;DHT22;4673;53.458;9.940;2022-11-20T12:14:40;2.40;82.00
9271;DHT22;4673;53.458;9.940;2022-11-20T12:17:12;2.30;82.30
9271;DHT22;4673;53.458;9.940;2022-11-20T12:19:39;2.30;83.00
9271;DHT22;4673;53.458;9.940;2022-11-20T12:28:01;2.10;83.70
9271;DHT22;4673;53.458;9.940;2022-11-20T12:30:32;2.20;84.60
9271;DHT22;4673;53.458;9.940;2022-11-20T12:33:25;2.50;85.00
9271;DHT22;4673;53.458;9.940;2022-11-20T12:51:13;1.90;82.80
9271;DHT22;4673;53.458;9.940;2022-11-20T13:01:40;2.60;82.70
9271;DHT22;4673;53.458;9.940;2022-11-20T13:06:48;2.70;79.60
9271;DHT22;4673;53.458;9.940;2022-11-20T13:09:17;2.80;79.90
9271;DHT22;4673;53.458;9.940;2022-11-20T13:17:24;2.40;76.60
9271;DHT22;4673;53.458;9.940;2022-11-20T13:19:56;2.40;77.40
9271;DHT22;4673;53.458;9.940;2022-11-20T13:22:29;2.50;78.30
9271;DHT22;4673;53.458;9.940;2022-11-20T13:24:55;2.40;77.50
9271;DHT22;4673;53.458;9.940;2022-11-20T13:27:22;2.30;77.90
9271;DHT22;4673;53.458;9.940;2022-11-20T13:30:12;2.50;78.60
9271;DHT22;4673;53.458;9.940;2022-11-20T13:32:54;2.60;78.60
9271;DHT22;4673;53.458;9.940;2022-11-20T13:35:54;2.80;78.40
9271;DHT22;4673;53.458;9.940;2022-11-20T13:38:20;2.90;78.20
9271;DHT22;4673;53.458;9.940;2022-11-20T13:41:00;3.00;77.40
9271;DHT22;4673;53.458;9.940;2022-11-20T13:43:47;3.00;75.80
9271;DHT22;4673;53.458;9.940;2022-11-20T13:46:13;3.00;76.70
9271;DHT22;4673;53.458;9.940;2022-11-20T13:48:44;3.00;76.30
9271;DHT22;4673;53.458;9.940;2022-11-20T13:56:48;3.10;76.50
9271;DHT22;4673;53.458;9.940;2022-11-20T14:02:00;3.20;77.30
9271;DHT22;4673;53.458;9.940;2022-11-20T14:04:30;3.30;77.40
9271;DHT22;4673;53.458;9.940;2022-11-20T14:06:58;3.30;77.40
9271;DHT22;4673;53.458;9.940;2022-11-20T14:09:29;3.30;77.20
9271;DHT22;4673;53.458;9.940;2022-11-20T14:11:55;3.30;77.40
9271;DHT22;4673;53.458;9.940;2022-11-20T14:14:24;3.30;77.40
9271;DHT22;4673;53.458;9.940;2022-11-20T14:16:50;3.30;77.40
9271;DHT22;4673;53.458;9.940;2022-11-20T14:19:27;3.30;77.40
9271;DHT22;4673;53.458;9.940;2022-11-20T14:24:40;3.30;77.00
9271;DHT22;4673;53.458;9.940;2022-11-20T14:27:18;3.30;76.60
9271;DHT22;4673;53.458;9.940;2022-11-20T14:29:46;3.20;76.70
9271;DHT22;4673;53.458;9.940;2022-11-20T14:32:18;3.20;76.80
9271;DHT22;4673;53.458;9.940;2022-11-20T14:34:46;3.20;77.10
9271;DHT22;4673;53.458;9.940;2022-11-20T14:37:18;3.20;77.10
9271;DHT22;4673;53.458;9.940;2022-11-20T14:39:50;3.20;77.40
9271;DHT22;4673;53.458;9.940;2022-11-20T14:42:25;3.20;77.50
9271;DHT22;4673;53.458;9.940;2022-11-20T14:44:58;3.20;77.60
9271;DHT22;4673;53.458;9.940;2022-11-20T14:47:29;3.20;78.20
9271;DHT22;4673;53.458;9.940;2022-11-20T14:49:57;3.20;78.20
9271;DHT22;4673;53.458;9.940;2022-11-20T14:52:25;3.10;77.70
9271;DHT22;4673;53.458;9.940;2022-11-20T14:54:53;3.10;78.20
9271;DHT22;4673;53.458;9.940;2022-11-20T14:57:25;3.10;78.20
9271;DHT22;4673;53.458;9.940;2022-11-20T14:59:51;3.00;78.10
9271;DHT22;4673;53.458;9.940;2022-11-20T15:02:30;3.00;78.00
9271;DHT22;4673;53.458;9.940;2022-11-20T15:05:00;2.90;78.50
9271;DHT22;4673;53.458;9.940;2022-11-20T15:07:34;2.90;78.80
9271;DHT22;4673;53.458;9.940;2022-11-20T15:10:02;2.90;78.80
9271;DHT22;4673;53.458;9.940;2022-11-20T15:12:30;2.70;78.60
9271;DHT22;4673;53.458;9.940;2022-11-20T15:14:56;2.70;79.00
9271;DHT22;4673;53.458;9.940;2022-11-20T15:17:22;2.60;79.00
9271;DHT22;4673;53.458;9.940;2022-11-20T15:19:47;2.40;79.20
9271;DHT22;4673;53.458;9.940;2022-11-20T15:22:13;2.30;79.50
9271;DHT22;4673;53.458;9.940;2022-11-20T15:24:41;2.40;80.10
9271;DHT22;4673;53.458;9.940;2022-11-20T15:27:08;2.30;79.90
9271;DHT22;4673;53.458;9.940;2022-11-20T15:29:34;2.30;80.00
9271;DHT22;4673;53.458;9.940;2022-11-20T15:32:00;2.10;80.10
9271;DHT22;4673;53.458;9.940;2022-11-20T15:34:27;2.10;80.70
9271;DHT22;4673;53.458;9.940;2022-11-20T15:36:52;2.10;81.10
9271;DHT22;4673;53.458;9.940;2022-11-20T15:39:21;2.10;81.50
9271;DHT22;4673;53.458;9.940;2022-11-20T15:41:46;2.30;81.80
9271;DHT22;4673;53.458;9.940;2022-11-20T15:44:12;2.30;81.90
9271;DHT22;4673;53.458;9.940;2022-11-20T15:46:41;2.00;80.60
9271;DHT22;4673;53.458;9.940;2022-11-20T15:49:13;1.90;80.80
9271;DHT22;4673;53.458;9.940;2022-11-20T15:51:42;1.90;81.50
9271;DHT22;4673;53.458;9.940;2022-11-20T15:54:13;1.80;81.70
9271;DHT22;4673;53.458;9.940;2022-11-20T15:56:39;1.90;82.40
9271;DHT22;4673;53.458;9.940;2022-11-20T15:59:05;1.90;82.70
9271;DHT22;4673;53.458;9.940;2022-11-20T16:01:30;2.00;83.00
9271;DHT22;4673;53.458;9.940;2022-11-20T16:03:56;2.00;83.10
9271;DHT22;4673;53.458;9.940;2022-11-20T16:06:22;2.00;82.80
9271;DHT22;4673;53.458;9.940;2022-11-20T16:08:47;1.90;82.50
9271;DHT22;4673;53.458;9.940;2022-11-20T16:11:14;1.90;82.90
9271;DHT22;4673;53.458;9.940;2022-11-20T16:13:41;2.00;83.20
9271;DHT22;4673;53.458;9.940;2022-11-20T16:16:28;2.00;83.30
9271;DHT22;4673;53.458;9.940;2022-11-20T16:18:56;2.00;83.20
9271;DHT22;4673;53.458;9.940;2022-11-20T16:21:22;1.90;82.90
9271;DHT22;4673;53.458;9.940;2022-11-20T16:24:00;1.90;83.00
9271;DHT22;4673;53.458;9.940;2022-11-20T16:26:26;1.80;83.10
9271;DHT22;4673;53.458;9.940;2022-11-20T16:28:52;1.80;83.40
9271;DHT22;4673;53.458;9.940;2022-11-20T16:31:19;1.80;83.70
9271;DHT22;4673;53.458;9.940;2022-11-20T16:33:53;1.90;84.00
9271;DHT22;4673;53.458;9.940;2022-11-20T16:36:20;1.90;84.00
9271;DHT22;4673;53.458;9.940;2022-11-20T16:38:51;1.90;84.10
9271;DHT22;4673;53.458;9.940;2022-11-20T16:41:16;1.90;84.10
9271;DHT22;4673;53.458;9.940;2022-11-20T16:43:47;1.90;84.30
9271;DHT22;4673;53.458;9.940;2022-11-20T16:46:14;2.00;84.20
9271;DHT22;4673;53.458;9.940;2022-11-20T16:48:40;1.80;83.90
9271;DHT22;4673;53.458;9.940;2022-11-20T16:51:08;1.80;84.10
9271;DHT22;4673;53.458;9.940;2022-11-20T16:53:34;1.80;84.20
9271;DHT22;4673;53.458;9.940;2022-11-20T16:56:14;1.70;84.20
9271;DHT22;4673;53.458;9.940;2022-11-20T16:58:45;1.70;84.20
9271;DHT22;4673;53.458;9.940;2022-11-20T17:01:13;1.60;84.30
9271;DHT22;4673;53.458;9.940;2022-11-20T17:03:40;1.60;84.40
9271;DHT22;4673;53.458;9.940;2022-11-20T17:06:17;1.50;84.50
9271;DHT22;4673;53.458;9.940;2022-11-20T17:08:44;1.40;84.60
9271;DHT22;4673;53.458;9.940;2022-11-20T17:11:13;1.40;84.70
9271;DHT22;4673;53.458;9.940;2022-11-20T17:13:39;1.40;85.00
9271;DHT22;4673;53.458;9.940;2022-11-20T17:16:07;1.30;85.30
9271;DHT22;4673;53.458;9.940;2022-11-20T17:18:33;1.30;85.40
9271;DHT22;4673;53.458;9.940;2022-11-20T17:21:00;1.30;85.30
9271;DHT22;4673;53.458;9.940;2022-11-20T17:23:36;1.20;85.10
9271;DHT22;4673;53.458;9.940;2022-11-20T17:26:06;1.10;85.30
9271;DHT22;4673;53.458;9.940;2022-11-20T17:28:32;1.00;85.40
9271;DHT22;4673;53.458;9.940;2022-11-20T17:31:02;0.90;85.60
9271;DHT22;4673;53.458;9.940;2022-11-20T17:33:29;0.80;85.80
9271;DHT22;4673;53.458;9.940;2022-11-20T17:35:55;0.70;85.80
9271;DHT22;4673;53.458;9.940;2022-11-20T17:38:21;0.60;85.90
9271;DHT22;4673;53.458;9.940;2022-11-20T17:40:46;0.50;86.20
9271;DHT22;4673;53.458;9.940;2022-11-20T17:43:12;0.40;86.30
9271;DHT22;4673;53.458;9.940;2022-11-20T17:45:38;0.30;86.60
9271;DHT22;4673;53.458;9.940;2022-11-20T17:48:04;0.20;86.70
9271;DHT22;4673;53.458;9.940;2022-11-20T17:50:29;0.20;87.20
9271;DHT22;4673;53.458;9.940;2022-11-20T17:52:55;0.30;87.70
9271;DHT22;4673;53.458;9.940;2022-11-20T17:55:21;0.30;88.00
9271;DHT22;4673;53.458;9.940;2022-11-20T17:57:46;0.30;88.00
9271;DHT22;4673;53.458;9.940;2022-11-20T18:00:20;0.30;88.30
9271;DHT22;4673;53.458;9.940;2022-11-20T18:02:46;0.30;88.40
9271;DHT22;4673;53.458;9.940;2022-11-20T18:05:12;0.30;88.60